createdAt,value
2022-12-03T00:01:14.540Z,15.25
2022-12-03T00:04:17.533Z,15.13
2022-12-03T00:07:20.035Z,13.40
2022-12-03T00:10:24.276Z,14.47
2022-12-03T00:13:26.841Z,13.60
2022-12-03T00:16:29.935Z,14.13
2022-12-03T00:19:32.549Z,13.98
2022-12-03T00:22:35.530Z,14.10
2022-12-03T00:25:38.005Z,13.50
2022-12-03T00:28:41.173Z,15.18
2022-12-03T00:31:45.621Z,10.77
2022-12-03T00:34:49.584Z,14.87
2022-12-03T00:37:52.157Z,14.83
2022-12-03T00:40:55.014Z,14.43
2022-12-03T00:43:57.720Z,14.45
2022-12-03T00:47:00.742Z,14.55
2022-12-03T00:50:05.196Z,14.25
2022-12-03T00:53:08.164Z,14.20
2022-12-03T00:56:10.746Z,14.35
2022-12-03T00:59:15.935Z,15.10
2022-12-03T01:02:18.658Z,13.38
2022-12-03T01:05:21.634Z,14.63
2022-12-03T01:08:24.366Z,13.77
2022-12-03T01:11:39.234Z,13.33
2022-12-03T01:14:41.893Z,13.45
2022-12-03T01:17:46.033Z,14.13
2022-12-03T01:20:48.657Z,14.75
2022-12-03T01:23:51.501Z,13.67
2022-12-03T01:26:55.998Z,14.40
2022-12-03T01:30:00.107Z,14.18
2022-12-03T01:33:02.751Z,12.85
2022-12-03T01:36:06.040Z,15.02
2022-12-03T01:39:09.739Z,14.77
2022-12-03T01:42:17.477Z,15.57
2022-12-03T01:45:24.147Z,15.05
2022-12-03T01:48:28.292Z,15.43
2022-12-03T01:51:31.226Z,15.68
2022-12-03T01:54:41.298Z,14.53
2022-12-03T01:57:50.499Z,14.60
2022-12-03T02:00:53.590Z,14.02
2022-12-03T02:03:59.093Z,14.85
2022-12-03T02:07:32.607Z,14.70
2022-12-03T02:10:36.402Z,15.03
2022-12-03T02:13:39.301Z,13.97
2022-12-03T02:16:42.938Z,15.18
2022-12-03T02:19:46.783Z,12.60
2022-12-03T02:23:02.647Z,14.85
2022-12-03T02:26:05.679Z,14.83
2022-12-03T02:29:08.367Z,14.50
2022-12-03T02:32:11.276Z,15.80
2022-12-03T02:35:16.400Z,14.85
2022-12-03T02:38:23.218Z,14.93
2022-12-03T02:41:44.656Z,15.60
2022-12-03T02:44:47.643Z,15.13
2022-12-03T02:47:55.565Z,13.98
2022-12-03T02:51:02.649Z,15.25
2022-12-03T02:54:05.571Z,15.15
2022-12-03T02:57:08.531Z,14.77
2022-12-03T03:00:12.121Z,13.67
2022-12-03T03:03:18.320Z,15.00
2022-12-03T03:06:21.870Z,15.95
2022-12-03T03:09:24.825Z,14.77
2022-12-03T03:12:27.430Z,15.80
2022-12-03T03:15:30.360Z,15.93
2022-12-03T03:18:34.253Z,14.32
2022-12-03T03:21:37.111Z,14.30
2022-12-03T03:24:39.893Z,14.35
2022-12-03T03:27:43.560Z,14.73
2022-12-03T03:30:48.286Z,14.93
2022-12-03T03:33:51.863Z,14.40
2022-12-03T03:36:54.526Z,14.87
2022-12-03T03:39:58.171Z,14.90
2022-12-03T03:43:01.348Z,13.93
2022-12-03T03:46:06.781Z,14.67
2022-12-03T03:49:10.699Z,13.98
2022-12-03T03:52:14.192Z,14.25
2022-12-03T03:55:19.165Z,14.23
2022-12-03T03:58:22.426Z,14.47
2022-12-03T04:01:25.391Z,15.57
2022-12-03T04:04:34.634Z,14.57
2022-12-03T04:07:37.369Z,14.40
2022-12-03T04:10:58.803Z,14.30
2022-12-03T04:14:02.870Z,13.57
2022-12-03T04:17:05.693Z,14.07
2022-12-03T04:20:08.618Z,13.70
2022-12-03T04:23:11.639Z,13.25
2022-12-03T04:26:33.167Z,12.93
2022-12-03T04:29:36.065Z,9.30
2022-12-03T04:32:57.062Z,14.00
2022-12-03T04:36:00.014Z,9.80
2022-12-03T04:39:02.720Z,10.30
2022-12-03T04:42:06.516Z,14.48
2022-12-03T04:45:09.551Z,13.57
2022-12-03T04:48:12.564Z,13.20
2022-12-03T04:51:15.126Z,11.48
2022-12-03T04:54:18.045Z,12.15
2022-12-03T04:57:20.586Z,13.30
2022-12-03T05:00:23.523Z,13.10
2022-12-03T05:03:26.057Z,15.30
2022-12-03T05:06:30.988Z,13.82
2022-12-03T05:09:33.689Z,15.00
2022-12-03T05:12:37.559Z,16.62
2022-12-03T05:15:40.113Z,13.77
2022-12-03T05:18:46.042Z,16.47
2022-12-03T05:21:48.750Z,16.00
2022-12-03T05:24:51.854Z,15.63
2022-12-03T05:27:54.801Z,15.15
2022-12-03T05:30:57.759Z,12.87
2022-12-03T05:34:00.351Z,15.20
2022-12-03T05:37:03.482Z,14.77
2022-12-03T05:40:06.883Z,11.15
2022-12-03T05:43:09.765Z,16.98
2022-12-03T05:46:12.365Z,16.87
2022-12-03T05:49:15.237Z,17.30
2022-12-03T05:52:18.502Z,15.52
2022-12-03T05:55:21.865Z,15.93
2022-12-03T05:58:24.367Z,17.98
2022-12-03T06:01:27.255Z,15.07
2022-12-03T06:04:30.138Z,18.35
2022-12-03T06:07:32.718Z,19.15
2022-12-03T06:10:35.696Z,17.77
2022-12-03T06:13:38.268Z,17.73
2022-12-03T06:16:41.216Z,19.03
2022-12-03T06:19:43.953Z,17.65
2022-12-03T06:22:48.490Z,17.60
2022-12-03T06:25:51.241Z,16.85
2022-12-03T06:28:54.195Z,17.10
2022-12-03T06:31:56.783Z,17.03
2022-12-03T06:35:01.974Z,16.97
2022-12-03T06:38:04.615Z,17.92
2022-12-03T06:41:07.763Z,16.87
2022-12-03T06:44:11.416Z,19.75
2022-12-03T06:47:14.450Z,20.20
2022-12-03T06:50:17.131Z,19.10
2022-12-03T06:53:20.068Z,19.52
2022-12-03T06:56:22.815Z,18.33
2022-12-03T06:59:25.988Z,19.25
2022-12-03T07:02:28.677Z,18.23
2022-12-03T07:05:31.963Z,17.77
2022-12-03T07:08:34.798Z,18.77
2022-12-03T07:11:41.161Z,18.25
2022-12-03T07:14:43.750Z,19.02
2022-12-03T07:17:46.681Z,19.40
2022-12-03T07:20:52.028Z,21.63
2022-12-03T07:23:56.661Z,19.98
2022-12-03T07:27:00.626Z,16.62
2022-12-03T07:30:06.844Z,21.98
2022-12-03T07:33:09.621Z,15.27
2022-12-03T07:36:12.512Z,8.83
2022-12-03T07:39:15.593Z,6.32
2022-12-03T07:42:18.519Z,14.13
2022-12-03T07:45:22.446Z,12.20
2022-12-03T07:48:26.365Z,13.53
2022-12-03T07:51:32.190Z,13.93
2022-12-03T07:54:36.516Z,11.12
2022-12-03T07:57:39.775Z,12.57
2022-12-03T08:00:42.656Z,10.13
2022-12-03T08:03:45.663Z,14.30
2022-12-03T08:06:49.082Z,15.30
2022-12-03T08:09:52.061Z,12.95
2022-12-03T08:12:57.226Z,12.52
2022-12-03T08:16:11.851Z,12.80
2022-12-03T08:19:17.538Z,9.03
2022-12-03T08:22:20.666Z,11.03
2022-12-03T08:25:26.296Z,11.98
2022-12-03T08:28:29.334Z,12.18
2022-12-03T08:31:33.785Z,9.07
2022-12-03T08:34:44.795Z,16.60
2022-12-03T08:37:48.522Z,11.27
2022-12-03T08:40:53.029Z,10.82
2022-12-03T08:43:55.661Z,13.80
2022-12-03T08:47:10.462Z,11.80
2022-12-03T08:50:30.902Z,18.90
2022-12-03T08:53:37.824Z,12.07
2022-12-03T08:56:42.004Z,15.20
2022-12-03T08:59:45.826Z,16.45
2022-12-03T09:02:54.657Z,18.10
2022-12-03T09:05:57.733Z,24.77
2022-12-03T09:09:06.344Z,16.13
2022-12-03T09:12:09.832Z,18.77
2022-12-03T09:15:12.456Z,15.57
2022-12-03T09:18:15.339Z,17.00
2022-12-03T09:21:17.933Z,16.17
2022-12-03T09:24:21.232Z,16.67
2022-12-03T09:27:24.011Z,14.98
2022-12-03T09:30:27.029Z,14.25
2022-12-03T09:33:31.282Z,16.73
2022-12-03T09:36:34.433Z,10.17
2022-12-03T09:39:37.289Z,10.43
2022-12-03T09:42:40.531Z,20.75
2022-12-03T09:45:45.880Z,14.87
2022-12-03T09:48:48.960Z,21.55
2022-12-03T09:51:52.187Z,6.57
2022-12-03T09:54:55.399Z,18.27
2022-12-03T09:57:58.589Z,24.73
2022-12-03T10:01:01.590Z,25.37
2022-12-03T10:04:04.831Z,20.05
2022-12-03T10:07:09.693Z,16.00
2022-12-03T10:10:24.815Z,19.07
2022-12-03T10:13:30.931Z,17.15
2022-12-03T10:16:36.180Z,16.95
2022-12-03T10:19:39.803Z,22.02
2022-12-03T10:22:42.786Z,12.40
2022-12-03T10:25:54.317Z,18.10
2022-12-03T10:28:57.224Z,16.15
2022-12-03T10:32:01.641Z,18.60
2022-12-03T10:35:21.605Z,18.98
2022-12-03T10:38:24.249Z,18.40
2022-12-03T10:41:28.923Z,18.53
2022-12-03T10:44:34.142Z,16.45
2022-12-03T10:47:37.283Z,17.37
2022-12-03T10:51:03.436Z,19.55
2022-12-03T10:54:22.877Z,16.60
2022-12-03T10:57:25.757Z,14.00
2022-12-03T11:00:28.753Z,18.25
2022-12-03T11:03:35.255Z,17.12
2022-12-03T11:06:38.096Z,18.92
2022-12-03T11:09:44.129Z,19.30
2022-12-03T11:13:25.595Z,18.90
2022-12-03T11:16:40.276Z,18.37
2022-12-03T11:19:46.579Z,21.08
2022-12-03T11:22:53.797Z,20.42
2022-12-03T11:25:57.774Z,20.30
2022-12-03T11:29:00.519Z,17.43
2022-12-03T11:32:03.521Z,18.35
2022-12-03T11:35:19.496Z,16.45
2022-12-03T11:38:37.828Z,18.45
2022-12-03T11:41:40.507Z,19.00
2022-12-03T11:44:43.654Z,19.43
2022-12-03T11:47:59.838Z,17.42
2022-12-03T11:51:03.113Z,17.17
2022-12-03T11:54:05.786Z,16.50
2022-12-03T11:57:37.468Z,17.87
2022-12-03T12:00:51.969Z,15.87
2022-12-03T12:03:54.907Z,15.38
2022-12-03T12:06:57.600Z,14.68
2022-12-03T12:10:00.553Z,15.77
2022-12-03T12:13:03.386Z,10.90
2022-12-03T12:16:08.067Z,15.90
2022-12-03T12:19:29.672Z,15.68
2022-12-03T12:22:32.729Z,15.00
2022-12-03T12:25:40.870Z,14.87
2022-12-03T12:28:46.999Z,14.67
2022-12-03T12:31:53.915Z,14.80
2022-12-03T12:35:23.324Z,15.10
2022-12-03T12:38:28.287Z,15.48
2022-12-03T12:41:31.199Z,16.62
2022-12-03T12:44:33.732Z,16.57
2022-12-03T12:47:36.899Z,14.53
2022-12-03T12:50:43.897Z,15.48
2022-12-03T12:53:48.624Z,16.50
2022-12-03T12:56:51.361Z,15.77
2022-12-03T12:59:54.519Z,17.13
2022-12-03T13:03:03.304Z,16.33
2022-12-03T13:06:06.757Z,16.27
2022-12-03T13:09:15.232Z,16.77
2022-12-03T13:12:22.268Z,22.30
2022-12-03T13:15:52.241Z,20.67
2022-12-03T13:18:57.277Z,22.37
2022-12-03T13:22:15.799Z,22.58
2022-12-03T13:26:10.736Z,24.30
2022-12-03T13:29:19.755Z,22.37
2022-12-03T13:32:31.067Z,22.47
2022-12-03T13:35:36.443Z,21.50
2022-12-03T13:38:39.561Z,22.60
2022-12-03T13:42:01.815Z,19.02
2022-12-03T13:45:16.613Z,18.10
2022-12-03T13:48:23.335Z,17.90
2022-12-03T13:51:29.964Z,14.43
2022-12-03T13:54:32.751Z,19.37
2022-12-03T13:57:35.771Z,17.17
2022-12-03T14:00:38.513Z,21.67
2022-12-03T14:03:41.557Z,23.73
2022-12-03T14:06:44.123Z,22.87
2022-12-03T14:09:47.123Z,21.27
2022-12-03T14:12:51.017Z,20.40
2022-12-03T14:15:54.176Z,27.25
2022-12-03T14:18:56.814Z,14.67
2022-12-03T14:22:00.421Z,16.00
2022-12-03T14:25:03.051Z,17.40
2022-12-03T14:28:08.845Z,20.52
2022-12-03T14:31:11.586Z,20.25
2022-12-03T14:34:14.705Z,18.83
2022-12-03T14:37:17.839Z,16.80
2022-12-03T14:40:22.602Z,19.58
2022-12-03T14:43:25.413Z,16.52
2022-12-03T14:46:28.394Z,19.08
2022-12-03T14:49:31.289Z,15.20
2022-12-03T14:52:35.019Z,14.60
2022-12-03T14:55:38.422Z,17.37
2022-12-03T14:58:41.292Z,16.90
2022-12-03T15:01:44.222Z,16.73
2022-12-03T15:04:47.144Z,17.00
2022-12-03T15:07:49.734Z,17.80
2022-12-03T15:10:52.702Z,16.37
2022-12-03T15:13:55.191Z,17.00
2022-12-03T15:16:58.190Z,18.12
2022-12-03T15:20:00.881Z,17.73
2022-12-03T15:23:03.774Z,20.67
2022-12-03T15:26:06.614Z,18.50
2022-12-03T15:29:09.538Z,31.95
2022-12-03T15:32:14.530Z,26.33
2022-12-03T15:35:18.781Z,25.93
2022-12-03T15:38:21.403Z,38.00
2022-12-03T15:41:29.839Z,28.20
2022-12-03T15:44:32.805Z,29.87
2022-12-03T15:47:38.116Z,51.80
2022-12-03T15:50:41.435Z,25.73
2022-12-03T15:53:44.519Z,34.70
2022-12-03T15:56:47.189Z,49.80
2022-12-03T15:59:50.415Z,44.72
2022-12-03T16:02:54.759Z,17.35
2022-12-03T16:05:58.194Z,14.77
2022-12-03T16:09:00.812Z,11.93
2022-12-03T16:12:03.857Z,14.35
2022-12-03T16:15:06.849Z,15.93
2022-12-03T16:18:10.154Z,12.40
2022-12-03T16:21:12.757Z,7.23
2022-12-03T16:24:16.869Z,10.00
2022-12-03T16:27:25.479Z,8.13
2022-12-03T16:30:30.329Z,14.52
2022-12-03T16:33:32.951Z,17.62
2022-12-03T16:36:38.368Z,9.10
2022-12-03T16:39:42.509Z,11.07
2022-12-03T16:42:46.195Z,10.35
2022-12-03T16:46:02.988Z,10.38
2022-12-03T16:49:07.268Z,11.43
2022-12-03T16:52:10.720Z,10.50
2022-12-03T16:55:14.440Z,8.37
2022-12-03T16:58:21.342Z,10.10
2022-12-03T17:01:24.808Z,10.02
2022-12-03T17:04:30.093Z,11.60
2022-12-03T17:07:33.153Z,10.53
2022-12-03T17:10:36.001Z,13.60
2022-12-03T17:13:38.941Z,12.20
2022-12-03T17:16:41.442Z,9.20
2022-12-03T17:19:44.484Z,10.25
2022-12-03T17:22:47.942Z,9.67
2022-12-03T17:25:51.225Z,8.03
2022-12-03T17:28:53.923Z,12.77
2022-12-03T17:31:57.206Z,8.32
2022-12-03T17:35:00.347Z,7.15
2022-12-03T17:38:03.579Z,10.07
2022-12-03T17:41:07.580Z,8.87
2022-12-03T17:44:13.900Z,11.63
2022-12-03T17:47:19.316Z,9.50
2022-12-03T17:50:22.339Z,7.78
2022-12-03T17:53:25.751Z,8.00
2022-12-03T17:56:28.783Z,8.33
2022-12-03T17:59:31.666Z,8.70
2022-12-03T18:02:34.525Z,5.35
2022-12-03T18:05:37.561Z,10.98
2022-12-03T18:08:40.099Z,7.33
2022-12-03T18:11:43.404Z,10.87
2022-12-03T18:14:46.277Z,8.98
2022-12-03T18:17:49.356Z,6.80
2022-12-03T18:20:53.559Z,8.88
2022-12-03T18:24:00.395Z,11.27
2022-12-03T18:27:03.242Z,12.27
2022-12-03T18:30:07.551Z,8.65
2022-12-03T18:33:10.244Z,8.63
2022-12-03T18:36:22.402Z,8.05
2022-12-03T18:39:34.917Z,9.53
2022-12-03T18:42:38.228Z,7.97
2022-12-03T18:45:41.114Z,8.73
2022-12-03T18:48:48.748Z,9.65
2022-12-03T18:51:57.329Z,10.00
2022-12-03T18:55:02.882Z,10.43
2022-12-03T18:58:05.597Z,10.60
2022-12-03T19:01:16.577Z,11.38
2022-12-03T19:04:19.881Z,11.48
2022-12-03T19:07:23.377Z,11.23
2022-12-03T19:10:26.597Z,10.93
2022-12-03T19:13:30.983Z,13.10
2022-12-03T19:16:36.289Z,13.88
2022-12-03T19:19:39.776Z,12.00
2022-12-03T19:22:43.362Z,15.00
2022-12-03T19:26:01.255Z,15.63
2022-12-03T19:29:04.828Z,10.43
2022-12-03T19:32:11.229Z,15.73
2022-12-03T19:35:13.831Z,23.30
2022-12-03T19:38:18.417Z,18.65
2022-12-03T19:41:21.508Z,24.13
2022-12-03T19:44:24.732Z,16.47
2022-12-03T19:47:27.906Z,13.93
2022-12-03T19:50:31.226Z,11.98
2022-12-03T19:53:37.318Z,14.07
2022-12-03T19:56:40.820Z,12.57
2022-12-03T19:59:43.807Z,10.47
2022-12-03T20:02:49.421Z,13.60
2022-12-03T20:05:52.909Z,10.43
2022-12-03T20:08:59.721Z,6.90
2022-12-03T20:12:03.222Z,6.70
2022-12-03T20:15:06.637Z,15.10
2022-12-03T20:18:11.024Z,13.73
2022-12-03T20:21:16.986Z,14.90
2022-12-03T20:24:20.449Z,16.40
2022-12-03T20:27:24.961Z,17.47
2022-12-03T20:30:28.336Z,17.53
2022-12-03T20:33:31.367Z,16.77
2022-12-03T20:36:34.945Z,16.05
2022-12-03T20:39:39.467Z,16.50
2022-12-03T20:42:48.833Z,17.80
2022-12-03T20:45:52.199Z,17.40
2022-12-03T20:48:56.147Z,15.50
2022-12-03T20:52:02.857Z,17.65
2022-12-03T20:55:09.284Z,16.35
2022-12-03T20:58:12.538Z,12.87
2022-12-03T21:01:21.146Z,7.67
2022-12-03T21:04:25.723Z,11.70
2022-12-03T21:07:29.341Z,14.40
2022-12-03T21:10:45.189Z,15.73
2022-12-03T21:13:49.931Z,22.90
2022-12-03T21:17:11.971Z,25.27
2022-12-03T21:20:20.942Z,23.90
2022-12-03T21:23:24.678Z,20.17
2022-12-03T21:26:27.902Z,18.45
2022-12-03T21:29:30.785Z,21.33
2022-12-03T21:32:34.483Z,17.97
2022-12-03T21:35:37.967Z,30.83
2022-12-03T21:38:42.648Z,15.55
2022-12-03T21:42:25.950Z,13.35
2022-12-03T21:45:11.584Z,15.50
2022-12-03T21:48:19.237Z,13.53
2022-12-03T21:51:22.730Z,20.48
2022-12-03T21:54:25.785Z,13.80
2022-12-03T21:57:28.945Z,19.23
2022-12-03T22:00:31.969Z,18.90
2022-12-03T22:03:34.789Z,19.10
2022-12-03T22:06:37.356Z,20.23
2022-12-03T22:09:40.242Z,21.05
2022-12-03T22:12:43.814Z,19.35
2022-12-03T22:15:46.797Z,18.63
2022-12-03T22:18:49.948Z,19.20
2022-12-03T22:21:53.832Z,21.15
2022-12-03T22:24:57.445Z,19.83
2022-12-03T22:28:00.294Z,19.92
2022-12-03T22:31:10.194Z,20.73
2022-12-03T22:34:13.386Z,19.90
2022-12-03T22:37:17.071Z,20.10
2022-12-03T22:40:19.861Z,20.40
2022-12-03T22:43:22.708Z,20.12
2022-12-03T22:46:25.634Z,22.80
2022-12-03T22:49:28.461Z,19.20
2022-12-03T22:52:31.376Z,17.17
2022-12-03T22:55:33.997Z,19.45
2022-12-03T22:58:38.862Z,19.50
2022-12-03T23:01:42.126Z,17.67
2022-12-03T23:04:44.996Z,17.07
2022-12-03T23:07:48.783Z,20.52
2022-12-03T23:10:52.960Z,18.92
2022-12-03T23:13:55.910Z,19.90
2022-12-03T23:16:58.750Z,19.63
2022-12-03T23:20:01.829Z,19.60
2022-12-03T23:23:04.721Z,20.40
2022-12-03T23:26:10.807Z,17.42
2022-12-03T23:29:13.912Z,20.60
2022-12-03T23:32:16.555Z,19.80
2022-12-03T23:35:19.467Z,21.60
2022-12-03T23:38:22.215Z,20.02
2022-12-03T23:41:26.139Z,21.60
2022-12-03T23:44:28.749Z,21.67
2022-12-03T23:47:32.709Z,21.70
2022-12-03T23:50:38.720Z,21.13
2022-12-03T23:53:41.666Z,21.45
2022-12-03T23:56:44.381Z,22.08
2022-12-03T23:59:47.235Z,20.65
